sensor_id;sensor_type;location;lat;lon;timestamp;pressure;altitude;pressure_sealevel;temperature;humidity
8575;BME280;4325;42.520;27.448;2023-05-14T00:01:59;101863.09;;;10.47;100.00
8575;BME280;4325;42.520;27.448;2023-05-14T00:04:26;101858.34;;;10.43;100.00
8575;BME280;4325;42.520;27.448;2023-05-14T00:06:55;101860.63;;;10.46;100.00
8575;BME280;4325;42.520;27.448;2023-05-14T00:09:21;101860.84;;;10.44;100.00
8575;BME280;4325;42.520;27.448;2023-05-14T00:11:48;101866.72;;;10.36;100.00
8575;BME280;4325;42.520;27.448;2023-05-14T00:14:15;101867.34;;;10.27;100.00
8575;BME280;4325;42.520;27.448;2023-05-14T00:16:42;101880.31;;;10.08;100.00
8575;BME280;4325;42.520;27.448;2023-05-14T00:19:09;101880.06;;;9.98;100.00
8575;BME280;4325;42.520;27.448;2023-05-14T00:21:36;101883.09;;;9.85;100.00
8575;BME280;4325;42.520;27.448;2023-05-14T00:24:04;101883.81;;;9.80;100.00
8575;BME280;4325;42.520;27.448;2023-05-14T00:26:34;101890.34;;;9.68;100.00
8575;BME280;4325;42.520;27.448;2023-05-14T00:29:01;101887.47;;;9.63;100.00
8575;BME280;4325;42.520;27.448;2023-05-14T00:31:28;101881.19;;;9.62;100.00
8575;BME280;4325;42.520;27.448;2023-05-14T00:33:54;101884.88;;;9.68;100.00
8575;BME280;4325;42.520;27.448;2023-05-14T00:36:21;101897.00;;;9.72;100.00
8575;BME280;4325;42.520;27.448;2023-05-14T00:38:48;101897.34;;;9.75;100.00
8575;BME280;4325;42.520;27.448;2023-05-14T00:41:16;101889.28;;;9.80;100.00
8575;BME280;4325;42.520;27.448;2023-05-14T00:43:43;101893.44;;;9.83;100.00
8575;BME280;4325;42.520;27.448;2023-05-14T00:46:10;101896.53;;;9.75;100.00
8575;BME280;4325;42.520;27.448;2023-05-14T00:48:37;101902.22;;;9.62;100.00
8575;BME280;4325;42.520;27.448;2023-05-14T00:51:05;101904.00;;;9.56;100.00
8575;BME280;4325;42.520;27.448;2023-05-14T00:53:33;101902.47;;;9.49;100.00
8575;BME280;4325;42.520;27.448;2023-05-14T00:56:01;101903.75;;;9.46;100.00
8575;BME280;4325;42.520;27.448;2023-05-14T00:58:29;101902.19;;;9.39;100.00
8575;BME280;4325;42.520;27.448;2023-05-14T01:00:56;101893.88;;;9.34;100.00
8575;BME280;4325;42.520;27.448;2023-05-14T01:03:23;101895.06;;;9.38;100.00
8575;BME280;4325;42.520;27.448;2023-05-14T01:05:55;101886.16;;;9.42;100.00
8575;BME280;4325;42.520;27.448;2023-05-14T01:08:33;101888.66;;;9.44;100.00
8575;BME280;4325;42.520;27.448;2023-05-14T01:11:05;101884.13;;;9.38;100.00
8575;BME280;4325;42.520;27.448;2023-05-14T01:13:45;101894.72;;;9.46;100.00
8575;BME280;4325;42.520;27.448;2023-05-14T01:16:18;101886.16;;;9.42;100.00
8575;BME280;4325;42.520;27.448;2023-05-14T01:18:45;101890.81;;;9.42;100.00
8575;BME280;4325;42.520;27.448;2023-05-14T01:21:32;101879.13;;;9.35;100.00
8575;BME280;4325;42.520;27.448;2023-05-14T01:24:00;101871.03;;;9.28;100.00
8575;BME280;4325;42.520;27.448;2023-05-14T01:26:27;101867.97;;;9.24;100.00
8575;BME280;4325;42.520;27.448;2023-05-14T01:28:59;101862.00;;;9.27;100.00
8575;BME280;4325;42.520;27.448;2023-05-14T01:31:30;101860.94;;;9.28;100.00
8575;BME280;4325;42.520;27.448;2023-05-14T01:33:59;101848.97;;;9.29;100.00
8575;BME280;4325;42.520;27.448;2023-05-14T01:36:28;101847.41;;;9.34;100.00
8575;BME280;4325;42.520;27.448;2023-05-14T01:38:57;101845.97;;;9.31;100.00
8575;BME280;4325;42.520;27.448;2023-05-14T01:41:26;101842.53;;;9.36;100.00
8575;BME280;4325;42.520;27.448;2023-05-14T01:43:55;101843.72;;;9.40;100.00
8575;BME280;4325;42.520;27.448;2023-05-14T01:46:22;101829.00;;;9.41;100.00
8575;BME280;4325;42.520;27.448;2023-05-14T01:48:49;101842.31;;;9.49;100.00
8575;BME280;4325;42.520;27.448;2023-05-14T01:51:16;101850.50;;;9.49;100.00
8575;BME280;4325;42.520;27.448;2023-05-14T01:53:45;101851.81;;;9.58;100.00
8575;BME280;4325;42.520;27.448;2023-05-14T01:56:11;101849.66;;;9.60;100.00
8575;BME280;4325;42.520;27.448;2023-05-14T01:58:38;101845.88;;;9.61;100.00
8575;BME280;4325;42.520;27.448;2023-05-14T02:01:05;101839.09;;;9.63;100.00
8575;BME280;4325;42.520;27.448;2023-05-14T02:03:32;101836.97;;;9.65;100.00
8575;BME280;4325;42.520;27.448;2023-05-14T02:05:59;101831.34;;;9.72;100.00
8575;BME280;4325;42.520;27.448;2023-05-14T02:08:26;101835.19;;;9.71;100.00
8575;BME280;4325;42.520;27.448;2023-05-14T02:10:54;101828.41;;;9.73;100.00
8575;BME280;4325;42.520;27.448;2023-05-14T02:13:21;101823.03;;;9.67;100.00
8575;BME280;4325;42.520;27.448;2023-05-14T02:15:48;101814.34;;;9.70;100.00
8575;BME280;4325;42.520;27.448;2023-05-14T02:18:15;101812.22;;;9.72;100.00
8575;BME280;4325;42.520;27.448;2023-05-14T02:20:42;101817.47;;;9.73;100.00
8575;BME280;4325;42.520;27.448;2023-05-14T02:23:09;101818.75;;;9.82;100.00
8575;BME280;4325;42.520;27.448;2023-05-14T02:25:36;101825.88;;;9.95;100.00
8575;BME280;4325;42.520;27.448;2023-05-14T02:28:05;101832.50;;;9.99;100.00
8575;BME280;4325;42.520;27.448;2023-05-14T02:30:32;101839.66;;;10.00;100.00
8575;BME280;4325;42.520;27.448;2023-05-14T02:32:58;101827.28;;;9.98;100.00
8575;BME280;4325;42.520;27.448;2023-05-14T02:35:25;101837.63;;;9.95;100.00
8575;BME280;4325;42.520;27.448;2023-05-14T02:37:52;101835.59;;;9.91;100.00
8575;BME280;4325;42.520;27.448;2023-05-14T02:40:20;101834.44;;;9.87;100.00
8575;BME280;4325;42.520;27.448;2023-05-14T02:42:46;101836.47;;;9.80;100.00
8575;BME280;4325;42.520;27.448;2023-05-14T02:45:15;101835.38;;;9.81;100.00
8575;BME280;4325;42.520;27.448;2023-05-14T02:47:42;101833.88;;;9.73;100.00
8575;BME280;4325;42.520;27.448;2023-05-14T02:50:09;101837.28;;;9.69;100.00
8575;BME280;4325;42.520;27.448;2023-05-14T02:52:36;101831.69;;;9.64;100.00
8575;BME280;4325;42.520;27.448;2023-05-14T02:55:03;101842.06;;;9.62;100.00
8575;BME280;4325;42.520;27.448;2023-05-14T02:57:30;101840.88;;;9.58;100.00
8575;BME280;4325;42.520;27.448;2023-05-14T02:59:57;101847.19;;;9.58;100.00
8575;BME280;4325;42.520;27.448;2023-05-14T03:02:25;101858.47;;;9.62;100.00
8575;BME280;4325;42.520;27.448;2023-05-14T03:04:52;101855.13;;;9.60;100.00
8575;BME280;4325;42.520;27.448;2023-05-14T03:07:19;101859.56;;;9.61;100.00
8575;BME280;4325;42.520;27.448;2023-05-14T03:09:46;101854.78;;;9.68;100.00
8575;BME280;4325;42.520;27.448;2023-05-14T03:12:13;101849.78;;;9.65;100.00
8575;BME280;4325;42.520;27.448;2023-05-14T03:14:39;101860.38;;;9.73;100.00
8575;BME280;4325;42.520;27.448;2023-05-14T03:17:06;101855.47;;;9.86;100.00
8575;BME280;4325;42.520;27.448;2023-05-14T03:19:35;101855.34;;;9.93;100.00
8575;BME280;4325;42.520;27.448;2023-05-14T03:22:02;101856.16;;;10.05;100.00
8575;BME280;4325;42.520;27.448;2023-05-14T03:24:29;101857.03;;;10.17;100.00
8575;BME280;4325;42.520;27.448;2023-05-14T03:26:56;101864.34;;;10.28;100.00
8575;BME280;4325;42.520;27.448;2023-05-14T03:29:23;101861.34;;;10.41;100.00
8575;BME280;4325;42.520;27.448;2023-05-14T03:31:50;101873.94;;;10.42;100.00
8575;BME280;4325;42.520;27.448;2023-05-14T03:34:17;101888.81;;;10.46;100.00
8575;BME280;4325;42.520;27.448;2023-05-14T03:36:45;101883.34;;;10.46;100.00
8575;BME280;4325;42.520;27.448;2023-05-14T03:39:12;101880.75;;;10.40;100.00
8575;BME280;4325;42.520;27.448;2023-05-14T03:41:40;101879.53;;;10.47;100.00
8575;BME280;4325;42.520;27.448;2023-05-14T03:44:07;101872.25;;;10.53;100.00
8575;BME280;4325;42.520;27.448;2023-05-14T03:46:33;101870.31;;;10.65;100.00
8575;BME280;4325;42.520;27.448;2023-05-14T03:49:00;101874.66;;;10.78;100.00
8575;BME280;4325;42.520;27.448;2023-05-14T03:51:27;101872.91;;;10.88;100.00
8575;BME280;4325;42.520;27.448;2023-05-14T03:53:55;101875.88;;;11.15;100.00
8575;BME280;4325;42.520;27.448;2023-05-14T03:56:23;101871.66;;;11.24;100.00
8575;BME280;4325;42.520;27.448;2023-05-14T03:58:50;101883.03;;;11.16;100.00
8575;BME280;4325;42.520;27.448;2023-05-14T04:01:17;101884.69;;;11.17;100.00
8575;BME280;4325;42.520;27.448;2023-05-14T04:03:44;101875.88;;;11.15;100.00
8575;BME280;4325;42.520;27.448;2023-05-14T04:06:11;101887.66;;;11.15;100.00
8575;BME280;4325;42.520;27.448;2023-05-14T04:08:38;101887.56;;;11.10;100.00
8575;BME280;4325;42.520;27.448;2023-05-14T04:11:06;101877.28;;;11.17;100.00
8575;BME280;4325;42.520;27.448;2023-05-14T04:13:33;101882.72;;;11.29;100.00
8575;BME280;4325;42.520;27.448;2023-05-14T04:16:00;101890.28;;;11.39;100.00
8575;BME280;4325;42.520;27.448;2023-05-14T04:18:27;101888.34;;;11.39;100.00
8575;BME280;4325;42.520;27.448;2023-05-14T04:20:55;101895.00;;;11.43;100.00
8575;BME280;4325;42.520;27.448;2023-05-14T04:23:22;101900.81;;;11.47;100.00
8575;BME280;4325;42.520;27.448;2023-05-14T04:25:49;101908.81;;;11.48;100.00
8575;BME280;4325;42.520;27.448;2023-05-14T04:28:17;101907.03;;;11.42;100.00
8575;BME280;4325;42.520;27.448;2023-05-14T04:30:44;101917.09;;;11.37;100.00
8575;BME280;4325;42.520;27.448;2023-05-14T04:33:11;101905.53;;;11.51;100.00
8575;BME280;4325;42.520;27.448;2023-05-14T04:35:38;101913.94;;;11.61;100.00
8575;BME280;4325;42.520;27.448;2023-05-14T04:38:05;101916.66;;;11.73;100.00
8575;BME280;4325;42.520;27.448;2023-05-14T04:40:32;101896.16;;;11.80;100.00
8575;BME280;4325;42.520;27.448;2023-05-14T04:42:58;101900.31;;;11.83;100.00
8575;BME280;4325;42.520;27.448;2023-05-14T04:45:27;101901.31;;;11.93;100.00
8575;BME280;4325;42.520;27.448;2023-05-14T04:47:54;101896.47;;;12.01;100.00
8575;BME280;4325;42.520;27.448;2023-05-14T04:50:20;101908.03;;;12.03;100.00
8575;BME280;4325;42.520;27.448;2023-05-14T04:52:47;101912.59;;;12.14;100.00
8575;BME280;4325;42.520;27.448;2023-05-14T04:55:15;101921.13;;;12.17;100.00
8575;BME280;4325;42.520;27.448;2023-05-14T04:57:41;101923.81;;;12.34;100.00
8575;BME280;4325;42.520;27.448;2023-05-14T05:00:09;101920.00;;;12.35;100.00
8575;BME280;4325;42.520;27.448;2023-05-14T05:02:38;101917.13;;;12.25;100.00
8575;BME280;4325;42.520;27.448;2023-05-14T05:05:06;101921.63;;;12.31;100.00
8575;BME280;4325;42.520;27.448;2023-05-14T05:07:33;101917.00;;;12.36;100.00
8575;BME280;4325;42.520;27.448;2023-05-14T05:10:00;101916.75;;;12.38;100.00
8575;BME280;4325;42.520;27.448;2023-05-14T05:12:27;101916.06;;;12.47;100.00
8575;BME280;4325;42.520;27.448;2023-05-14T05:14:55;101923.38;;;12.64;100.00
8575;BME280;4325;42.520;27.448;2023-05-14T05:17:21;101934.84;;;12.77;100.00
8575;BME280;4325;42.520;27.448;2023-05-14T05:19:51;101943.56;;;12.96;100.00
8575;BME280;4325;42.520;27.448;2023-05-14T05:22:25;101939.09;;;13.11;100.00
8575;BME280;4325;42.520;27.448;2023-05-14T05:24:52;101938.09;;;13.22;100.00
8575;BME280;4325;42.520;27.448;2023-05-14T05:27:19;101928.00;;;13.28;100.00
8575;BME280;4325;42.520;27.448;2023-05-14T05:29:46;101923.38;;;13.39;100.00
8575;BME280;4325;42.520;27.448;2023-05-14T05:32:13;101928.38;;;13.42;100.00
8575;BME280;4325;42.520;27.448;2023-05-14T05:34:40;101924.03;;;13.46;100.00
8575;BME280;4325;42.520;27.448;2023-05-14T05:37:08;101926.31;;;13.59;100.00
8575;BME280;4325;42.520;27.448;2023-05-14T05:39:37;101926.50;;;13.79;100.00
8575;BME280;4325;42.520;27.448;2023-05-14T05:42:05;101925.84;;;14.04;100.00
8575;BME280;4325;42.520;27.448;2023-05-14T05:44:31;101934.50;;;14.27;100.00
8575;BME280;4325;42.520;27.448;2023-05-14T05:46:58;101944.47;;;14.33;100.00
8575;BME280;4325;42.520;27.448;2023-05-14T05:49:25;101936.84;;;14.40;100.00
8575;BME280;4325;42.520;27.448;2023-05-14T05:51:52;101933.63;;;14.64;100.00
8575;BME280;4325;42.520;27.448;2023-05-14T05:54:22;101938.38;;;14.83;100.00
8575;BME280;4325;42.520;27.448;2023-05-14T05:56:49;101924.91;;;15.02;100.00
8575;BME280;4325;42.520;27.448;2023-05-14T05:59:16;101930.47;;;15.22;100.00
8575;BME280;4325;42.520;27.448;2023-05-14T06:01:43;101921.09;;;15.43;100.00
8575;BME280;4325;42.520;27.448;2023-05-14T06:04:09;101920.59;;;15.66;100.00
8575;BME280;4325;42.520;27.448;2023-05-14T06:06:36;101918.63;;;15.92;100.00
8575;BME280;4325;42.520;27.448;2023-05-14T06:09:03;101910.03;;;16.14;100.00
8575;BME280;4325;42.520;27.448;2023-05-14T06:11:32;101922.94;;;16.38;100.00
8575;BME280;4325;42.520;27.448;2023-05-14T06:14:02;101922.34;;;16.62;100.00
8575;BME280;4325;42.520;27.448;2023-05-14T06:16:32;101933.06;;;16.78;100.00
8575;BME280;4325;42.520;27.448;2023-05-14T06:18:59;101931.28;;;16.97;100.00
8575;BME280;4325;42.520;27.448;2023-05-14T06:21:26;101933.69;;;17.09;100.00
8575;BME280;4325;42.520;27.448;2023-05-14T06:23:55;101934.13;;;17.26;100.00
8575;BME280;4325;42.520;27.448;2023-05-14T06:26:22;101932.06;;;17.52;100.00
8575;BME280;4325;42.520;27.448;2023-05-14T06:28:54;101932.97;;;17.76;99.38
8575;BME280;4325;42.520;27.448;2023-05-14T06:31:24;101936.78;;;17.80;96.65
8575;BME280;4325;42.520;27.448;2023-05-14T06:33:51;101936.50;;;17.43;97.79
8575;BME280;4325;42.520;27.448;2023-05-14T06:36:18;101939.88;;;16.96;100.00
8575;BME280;4325;42.520;27.448;2023-05-14T06:38:45;101941.94;;;16.70;100.00
8575;BME280;4325;42.520;27.448;2023-05-14T06:41:14;101942.41;;;16.82;100.00
8575;BME280;4325;42.520;27.448;2023-05-14T06:43:41;101950.72;;;16.82;100.00
8575;BME280;4325;42.520;27.448;2023-05-14T06:46:09;101947.84;;;17.02;100.00
8575;BME280;4325;42.520;27.448;2023-05-14T06:48:36;101959.31;;;17.30;100.00
8575;BME280;4325;42.520;27.448;2023-05-14T06:51:03;101966.63;;;17.59;100.00
8575;BME280;4325;42.520;27.448;2023-05-14T06:53:30;101987.19;;;17.82;100.00
8575;BME280;4325;42.520;27.448;2023-05-14T06:55:57;101985.97;;;17.98;99.66
8575;BME280;4325;42.520;27.448;2023-05-14T06:58:24;101992.97;;;18.19;98.50
8575;BME280;4325;42.520;27.448;2023-05-14T07:00:51;101984.97;;;18.41;95.34
8575;BME280;4325;42.520;27.448;2023-05-14T07:03:19;101981.56;;;18.50;91.73
8575;BME280;4325;42.520;27.448;2023-05-14T07:05:47;101979.28;;;18.57;92.79
8575;BME280;4325;42.520;27.448;2023-05-14T07:08:14;101978.25;;;18.95;92.71
8575;BME280;4325;42.520;27.448;2023-05-14T07:10:41;101960.72;;;19.18;87.96
8575;BME280;4325;42.520;27.448;2023-05-14T07:13:07;101957.66;;;19.57;86.15
8575;BME280;4325;42.520;27.448;2023-05-14T07:15:34;101951.84;;;20.04;83.94
8575;BME280;4325;42.520;27.448;2023-05-14T07:18:01;101957.16;;;20.33;80.86
8575;BME280;4325;42.520;27.448;2023-05-14T07:20:29;101954.00;;;20.53;79.66
8575;BME280;4325;42.520;27.448;2023-05-14T07:22:56;101949.25;;;20.67;76.84
8575;BME280;4325;42.520;27.448;2023-05-14T07:25:23;101958.53;;;20.49;76.35
8575;BME280;4325;42.520;27.448;2023-05-14T07:27:50;101962.66;;;20.65;77.61
8575;BME280;4325;42.520;27.448;2023-05-14T07:30:17;101958.09;;;20.96;76.41
8575;BME280;4325;42.520;27.448;2023-05-14T07:32:43;101962.53;;;21.47;73.12
8575;BME280;4325;42.520;27.448;2023-05-14T07:35:10;101970.47;;;21.76;69.32
8575;BME280;4325;42.520;27.448;2023-05-14T07:37:39;101966.81;;;21.31;68.15
8575;BME280;4325;42.520;27.448;2023-05-14T07:40:08;101966.53;;;21.19;70.38
8575;BME280;4325;42.520;27.448;2023-05-14T07:42:35;101974.31;;;21.66;69.73
8575;BME280;4325;42.520;27.448;2023-05-14T07:45:02;101987.19;;;22.20;67.35
8575;BME280;4325;42.520;27.448;2023-05-14T07:47:29;101980.56;;;22.69;65.06
8575;BME280;4325;42.520;27.448;2023-05-14T07:49:56;101980.81;;;22.59;62.03
8575;BME280;4325;42.520;27.448;2023-05-14T07:52:23;101984.94;;;22.30;62.89
8575;BME280;4325;42.520;27.448;2023-05-14T07:54:51;101974.13;;;22.29;65.00
8575;BME280;4325;42.520;27.448;2023-05-14T07:57:18;101968.97;;;22.22;63.37
8575;BME280;4325;42.520;27.448;2023-05-14T07:59:47;101972.09;;;22.21;63.39
8575;BME280;4325;42.520;27.448;2023-05-14T08:02:14;101980.75;;;22.11;63.00
8575;BME280;4325;42.520;27.448;2023-05-14T08:04:41;101969.66;;;22.19;64.04
8575;BME280;4325;42.520;27.448;2023-05-14T08:07:09;101967.91;;;22.63;62.55
8575;BME280;4325;42.520;27.448;2023-05-14T08:09:36;101979.22;;;23.31;60.40
8575;BME280;4325;42.520;27.448;2023-05-14T08:12:06;101995.53;;;23.89;58.26
8575;BME280;4325;42.520;27.448;2023-05-14T08:14:33;101985.28;;;24.27;55.79
8575;BME280;4325;42.520;27.448;2023-05-14T08:17:00;101988.31;;;24.60;54.92
8575;BME280;4325;42.520;27.448;2023-05-14T08:19:27;101999.25;;;24.74;53.45
8575;BME280;4325;42.520;27.448;2023-05-14T08:21:54;102006.44;;;24.54;54.33
8575;BME280;4325;42.520;27.448;2023-05-14T08:24:21;101999.00;;;25.25;51.73
8575;BME280;4325;42.520;27.448;2023-05-14T08:26:48;101998.47;;;25.73;49.61
8575;BME280;4325;42.520;27.448;2023-05-14T08:29:17;101992.06;;;25.52;49.05
8575;BME280;4325;42.520;27.448;2023-05-14T08:31:44;101989.94;;;25.49;49.99
8575;BME280;4325;42.520;27.448;2023-05-14T08:34:11;101967.16;;;25.71;49.44
8575;BME280;4325;42.520;27.448;2023-05-14T08:36:38;101965.16;;;25.51;49.08
8575;BME280;4325;42.520;27.448;2023-05-14T08:39:04;101959.00;;;25.37;50.20
8575;BME280;4325;42.520;27.448;2023-05-14T08:41:33;101958.50;;;25.14;50.14
8575;BME280;4325;42.520;27.448;2023-05-14T08:44:05;101964.47;;;24.83;51.14
8575;BME280;4325;42.520;27.448;2023-05-14T08:46:35;101954.91;;;24.84;51.29
8575;BME280;4325;42.520;27.448;2023-05-14T08:49:09;101956.66;;;25.18;51.34
8575;BME280;4325;42.520;27.448;2023-05-14T08:51:39;101966.47;;;25.53;49.21
8575;BME280;4325;42.520;27.448;2023-05-14T08:54:07;101963.78;;;25.78;48.60
8575;BME280;4325;42.520;27.448;2023-05-14T08:56:34;101949.63;;;25.74;49.26
8575;BME280;4325;42.520;27.448;2023-05-14T08:59:02;101958.44;;;26.17;49.30
8575;BME280;4325;42.520;27.448;2023-05-14T09:01:29;101948.66;;;26.48;48.38
8575;BME280;4325;42.520;27.448;2023-05-14T09:03:58;101941.13;;;27.24;46.77
8575;BME280;4325;42.520;27.448;2023-05-14T09:06:31;101946.53;;;27.69;44.49
8575;BME280;4325;42.520;27.448;2023-05-14T09:08:58;101952.81;;;27.38;44.09
8575;BME280;4325;42.520;27.448;2023-05-14T09:11:26;101946.88;;;27.28;43.48
8575;BME280;4325;42.520;27.448;2023-05-14T09:13:53;101949.44;;;27.33;43.20
8575;BME280;4325;42.520;27.448;2023-05-14T09:16:20;101941.03;;;26.97;43.52
8575;BME280;4325;42.520;27.448;2023-05-14T09:18:47;101941.03;;;26.72;43.71
8575;BME280;4325;42.520;27.448;2023-05-14T09:21:16;101933.88;;;26.27;44.63
8575;BME280;4325;42.520;27.448;2023-05-14T09:23:44;101932.25;;;26.13;44.93
8575;BME280;4325;42.520;27.448;2023-05-14T09:26:15;101935.66;;;25.66;44.93
8575;BME280;4325;42.520;27.448;2023-05-14T09:28:42;101937.13;;;25.51;46.01
8575;BME280;4325;42.520;27.448;2023-05-14T09:31:10;101947.13;;;25.93;46.13
8575;BME280;4325;42.520;27.448;2023-05-14T09:33:36;101941.84;;;26.37;45.16
8575;BME280;4325;42.520;27.448;2023-05-14T09:36:04;101946.63;;;26.24;44.02
8575;BME280;4325;42.520;27.448;2023-05-14T09:38:32;101952.81;;;26.17;44.09
8575;BME280;4325;42.520;27.448;2023-05-14T09:40:59;101951.31;;;25.99;44.31
8575;BME280;4325;42.520;27.448;2023-05-14T09:43:26;101950.47;;;25.75;45.14
8575;BME280;4325;42.520;27.448;2023-05-14T09:45:53;101944.84;;;25.54;45.87
8575;BME280;4325;42.520;27.448;2023-05-14T09:48:20;101958.81;;;25.63;46.38
8575;BME280;4325;42.520;27.448;2023-05-14T09:50:47;101952.59;;;25.57;46.70
8575;BME280;4325;42.520;27.448;2023-05-14T09:53:14;101959.19;;;25.32;46.33
8575;BME280;4325;42.520;27.448;2023-05-14T09:55:44;101963.81;;;24.86;45.90
8575;BME280;4325;42.520;27.448;2023-05-14T09:58:11;101964.78;;;24.44;47.90
8575;BME280;4325;42.520;27.448;2023-05-14T10:00:43;101964.72;;;23.98;48.92
8575;BME280;4325;42.520;27.448;2023-05-14T10:03:12;101963.97;;;23.54;49.48
8575;BME280;4325;42.520;27.448;2023-05-14T10:05:40;101973.63;;;23.14;51.68
8575;BME280;4325;42.520;27.448;2023-05-14T10:08:10;101949.84;;;22.69;52.26
8575;BME280;4325;42.520;27.448;2023-05-14T10:10:39;101959.56;;;22.41;55.26
8575;BME280;4325;42.520;27.448;2023-05-14T10:13:12;101957.97;;;21.95;56.07
8575;BME280;4325;42.520;27.448;2023-05-14T10:15:44;101951.81;;;21.40;59.32
8575;BME280;4325;42.520;27.448;2023-05-14T10:18:16;101941.59;;;21.14;61.75
8575;BME280;4325;42.520;27.448;2023-05-14T10:20:47;101947.88;;;20.92;64.79
8575;BME280;4325;42.520;27.448;2023-05-14T10:23:14;101940.28;;;20.70;66.96
8575;BME280;4325;42.520;27.448;2023-05-14T10:25:41;101934.41;;;20.58;68.11
8575;BME280;4325;42.520;27.448;2023-05-14T10:28:10;101936.88;;;20.46;68.65
8575;BME280;4325;42.520;27.448;2023-05-14T10:30:42;101942.00;;;20.25;70.76
8575;BME280;4325;42.520;27.448;2023-05-14T10:33:11;101941.31;;;20.01;71.90
8575;BME280;4325;42.520;27.448;2023-05-14T10:35:59;101939.00;;;19.76;75.15
8575;BME280;4325;42.520;27.448;2023-05-14T10:38:27;101925.41;;;19.74;77.81
8575;BME280;4325;42.520;27.448;2023-05-14T10:41:04;101931.13;;;19.64;79.25
8575;BME280;4325;42.520;27.448;2023-05-14T10:43:35;101927.41;;;19.55;80.50
8575;BME280;4325;42.520;27.448;2023-05-14T10:46:03;101921.50;;;19.43;81.18
8575;BME280;4325;42.520;27.448;2023-05-14T10:48:31;101916.06;;;19.33;81.11
8575;BME280;4325;42.520;27.448;2023-05-14T10:50:58;101909.47;;;19.29;81.90
8575;BME280;4325;42.520;27.448;2023-05-14T10:53:31;101915.63;;;19.26;83.44
8575;BME280;4325;42.520;27.448;2023-05-14T10:56:02;101903.41;;;19.27;84.33
8575;BME280;4325;42.520;27.448;2023-05-14T10:58:30;101913.88;;;19.30;83.40
8575;BME280;4325;42.520;27.448;2023-05-14T11:01:01;101904.91;;;19.38;83.35
8575;BME280;4325;42.520;27.448;2023-05-14T11:03:30;101907.19;;;19.50;83.08
8575;BME280;4325;42.520;27.448;2023-05-14T11:05:59;101895.09;;;19.59;82.55
8575;BME280;4325;42.520;27.448;2023-05-14T11:08:30;101900.06;;;19.62;82.24
8575;BME280;4325;42.520;27.448;2023-05-14T11:10:56;101889.19;;;19.80;81.82
8575;BME280;4325;42.520;27.448;2023-05-14T11:13:25;101888.59;;;19.83;79.62
8575;BME280;4325;42.520;27.448;2023-05-14T11:15:52;101877.50;;;20.10;79.40
8575;BME280;4325;42.520;27.448;2023-05-14T11:18:27;101884.53;;;20.48;77.28
8575;BME280;4325;42.520;27.448;2023-05-14T11:20:57;101888.03;;;20.67;74.90
8575;BME280;4325;42.520;27.448;2023-05-14T11:23:24;101872.28;;;20.98;74.21
8575;BME280;4325;42.520;27.448;2023-05-14T11:25:52;101867.25;;;21.67;70.23
8575;BME280;4325;42.520;27.448;2023-05-14T11:28:19;101864.19;;;22.47;65.79
8575;BME280;4325;42.520;27.448;2023-05-14T11:30:47;101866.63;;;23.39;61.73
8575;BME280;4325;42.520;27.448;2023-05-14T11:33:14;101864.41;;;23.71;57.54
8575;BME280;4325;42.520;27.448;2023-05-14T11:35:43;101861.63;;;23.79;55.49
8575;BME280;4325;42.520;27.448;2023-05-14T11:38:14;101852.69;;;23.86;54.65
8575;BME280;4325;42.520;27.448;2023-05-14T11:40:42;101854.06;;;24.26;54.18
8575;BME280;4325;42.520;27.448;2023-05-14T11:43:09;101849.94;;;25.03;52.60
8575;BME280;4325;42.520;27.448;2023-05-14T11:45:36;101852.22;;;26.44;48.33
8575;BME280;4325;42.520;27.448;2023-05-14T11:48:11;101834.63;;;28.25;42.83
8575;BME280;4325;42.520;27.448;2023-05-14T11:50:39;101832.16;;;29.28;39.89
8575;BME280;4325;42.520;27.448;2023-05-14T11:53:07;101825.38;;;29.93;38.59
8575;BME280;4325;42.520;27.448;2023-05-14T11:55:34;101832.72;;;32.06;34.35
8575;BME280;4325;42.520;27.448;2023-05-14T11:58:01;101828.38;;;33.67;31.13
8575;BME280;4325;42.520;27.448;2023-05-14T12:00:28;101835.63;;;34.91;29.07
8575;BME280;4325;42.520;27.448;2023-05-14T12:02:55;101831.75;;;35.44;27.75
8575;BME280;4325;42.520;27.448;2023-05-14T12:05:22;101811.09;;;35.95;27.32
8575;BME280;4325;42.520;27.448;2023-05-14T12:07:49;101813.59;;;35.17;27.79
8575;BME280;4325;42.520;27.448;2023-05-14T12:10:17;101808.78;;;33.44;28.86
8575;BME280;4325;42.520;27.448;2023-05-14T12:12:46;101811.94;;;31.95;31.52
8575;BME280;4325;42.520;27.448;2023-05-14T12:15:14;101800.50;;;30.51;33.17
8575;BME280;4325;42.520;27.448;2023-05-14T12:17:42;101790.50;;;29.63;34.90
8575;BME280;4325;42.520;27.448;2023-05-14T12:20:10;101774.94;;;29.27;35.71
8575;BME280;4325;42.520;27.448;2023-05-14T12:22:37;101796.13;;;29.82;35.88
8575;BME280;4325;42.520;27.448;2023-05-14T12:25:10;101784.41;;;30.55;34.19
8575;BME280;4325;42.520;27.448;2023-05-14T12:27:40;101779.91;;;30.28;34.05
8575;BME280;4325;42.520;27.448;2023-05-14T12:30:07;101791.25;;;28.30;36.69
8575;BME280;4325;42.520;27.448;2023-05-14T12:32:36;101794.25;;;27.31;38.89
8575;BME280;4325;42.520;27.448;2023-05-14T12:35:04;101787.56;;;26.80;40.74
8575;BME280;4325;42.520;27.448;2023-05-14T12:37:31;101782.16;;;26.23;41.99
8575;BME280;4325;42.520;27.448;2023-05-14T12:39:58;101771.50;;;26.16;41.47
8575;BME280;4325;42.520;27.448;2023-05-14T12:42:25;101765.28;;;25.87;41.53
8575;BME280;4325;42.520;27.448;2023-05-14T12:44:53;101762.81;;;25.73;42.34
8575;BME280;4325;42.520;27.448;2023-05-14T12:47:20;101759.53;;;25.95;42.32
8575;BME280;4325;42.520;27.448;2023-05-14T12:49:47;101762.34;;;26.32;42.23
8575;BME280;4325;42.520;27.448;2023-05-14T12:52:14;101767.22;;;26.59;41.70
8575;BME280;4325;42.520;27.448;2023-05-14T12:54:41;101767.38;;;26.38;41.79
8575;BME280;4325;42.520;27.448;2023-05-14T12:57:08;101768.88;;;25.87;42.68
8575;BME280;4325;42.520;27.448;2023-05-14T12:59:35;101764.16;;;25.43;43.34
8575;BME280;4325;42.520;27.448;2023-05-14T13:02:03;101755.31;;;25.20;45.09